CheckWX is a tool to help pilots better visualize weather data.  It is not intended as a substitute for an official pre-flight weather briefing.

13:03:37 UTC

LLBG METAR
Ben Gurion International Airport
Tel Aviv, Israel
Current

14 mins ago

LLBG 201250Z 33012KT CAVOK 26/17 Q1014 NOSIG
Observed
May-20 @ 12:50 UTC
Wind
  • 330° at 12 KTS
Visibility
10,000+ meters
Flight Rules
VFR
Cloud Levels
  • Clear skies
Temperature
26°C / 79°F
Dewpoint
17°C / 63°F
Humidity
58%
Altimeter
29.94" Hg
Pressure
1013.92 hPa
Previous

44 mins ago

LLBG 201220Z 32011KT 280V350 CAVOK 26/17 Q1014 NOSIG
Observed
May-20 @ 12:20 UTC
Wind
  • 320° at 11 KTS
Visibility
10,000+ meters
Flight Rules
VFR
Cloud Levels
  • Clear skies
Temperature
26°C / 79°F
Dewpoint
17°C / 63°F
Humidity
58%
Altimeter
29.94" Hg
Pressure
1013.92 hPa
Previous

1 hour ago

LLBG 201150Z 31010KT CAVOK 27/17 Q1014 NOSIG
Observed
May-20 @ 11:50 UTC
Wind
  • 310° at 10 KTS
Visibility
10,000+ meters
Flight Rules
VFR
Cloud Levels
  • Clear skies
Temperature
27°C / 81°F
Dewpoint
17°C / 63°F
Heat Index
28°C / 82°F
Humidity
54%
Altimeter
29.94" Hg
Pressure
1013.92 hPa